Accueil
METAR-TAF:

METAR-TAF

Aéroports :

Anvers, Belgique

Aéroport d'Anvers

latitude: 51-12N, longitude: 004-28E, altitude: 12 m

Observation

Le bulletin a été fait il y a 41 minutes, à 23:50 UTC
Vent 6 kt de nord-est
Température -1°C
Humidité 80%
Pression 1024 hPa
Visibilité: 8000 m

METAR: EBAW 212350Z AUTO 04006KT 8000 // NCD M01/M04 Q1024

Heure: 01:31 (00:31 UTC)

Prévision

Le bulletin a été fait il y a 1 heure et 31 minutes, à 23:00 UTC
Prévision valable du 22 à 00 UTC au 22 à 09 UTC
Vent 7 kt de nord-est
Visibilité: 7000 m

TAF: EBAW 212300Z 2200/2209 05007KT 7000 NSC

Observations et prévisions météorologiques de plus de 4000 aéroports (messages METAR et TAF).

Les stations disponibles sont représentées par des disques jaunes et rouges sur la carte.

Passer la souris dessus pour voir le nom de la station.

Cliquer dessus pour voir les observations et prévisions météorologiques.

Pour changer de carte: cliquez sur les boutons verts avec une croix noire pour zoomer, sur le bouton vert avec un tiret pour effectuer un zoom arrière, ou sur les flèches vertes pour les cartes adjacentes.


METAR-TAF: